sensor_id;sensor_type;location;lat;lon;timestamp;P1;durP1;ratioP1;P2;durP2;ratioP2
3867;SDS011;1949;48.152;11.528;2023-02-08T00:00:50;12.97;;;6.20;;
3867;SDS011;1949;48.152;11.528;2023-02-08T00:03:17;12.47;;;5.57;;
3867;SDS011;1949;48.152;11.528;2023-02-08T00:05:43;15.37;;;7.17;;
3867;SDS011;1949;48.152;11.528;2023-02-08T00:08:09;17.30;;;6.00;;
3867;SDS011;1949;48.152;11.528;2023-02-08T00:10:34;15.70;;;6.83;;
3867;SDS011;1949;48.152;11.528;2023-02-08T00:13:01;13.53;;;6.63;;
3867;SDS011;1949;48.152;11.528;2023-02-08T00:15:32;12.67;;;5.90;;
3867;SDS011;1949;48.152;11.528;2023-02-08T00:17:58;10.93;;;4.77;;
3867;SDS011;1949;48.152;11.528;2023-02-08T00:20:26;19.90;;;6.37;;
3867;SDS011;1949;48.152;11.528;2023-02-08T00:22:51;14.80;;;5.77;;
3867;SDS011;1949;48.152;11.528;2023-02-08T00:25:25;15.27;;;6.40;;
3867;SDS011;1949;48.152;11.528;2023-02-08T00:27:51;13.33;;;5.50;;
3867;SDS011;1949;48.152;11.528;2023-02-08T00:30:16;13.93;;;6.00;;
3867;SDS011;1949;48.152;11.528;2023-02-08T00:32:42;13.73;;;6.20;;
3867;SDS011;1949;48.152;11.528;2023-02-08T00:35:08;13.23;;;6.10;;
3867;SDS011;1949;48.152;11.528;2023-02-08T00:37:35;15.07;;;6.00;;
3867;SDS011;1949;48.152;11.528;2023-02-08T00:40:00;14.03;;;5.50;;
3867;SDS011;1949;48.152;11.528;2023-02-08T00:44:55;12.17;;;5.93;;
3867;SDS011;1949;48.152;11.528;2023-02-08T00:47:21;17.97;;;6.40;;
3867;SDS011;1949;48.152;11.528;2023-02-08T00:49:53;13.53;;;6.43;;
3867;SDS011;1949;48.152;11.528;2023-02-08T00:52:19;15.23;;;5.63;;
3867;SDS011;1949;48.152;11.528;2023-02-08T00:54:45;12.40;;;5.07;;
3867;SDS011;1949;48.152;11.528;2023-02-08T00:57:11;17.70;;;6.53;;
3867;SDS011;1949;48.152;11.528;2023-02-08T00:59:37;15.90;;;5.40;;
3867;SDS011;1949;48.152;11.528;2023-02-08T01:02:03;14.77;;;5.40;;
3867;SDS011;1949;48.152;11.528;2023-02-08T01:04:32;23.27;;;6.47;;
3867;SDS011;1949;48.152;11.528;2023-02-08T01:06:57;17.63;;;6.70;;
3867;SDS011;1949;48.152;11.528;2023-02-08T01:09:23;17.50;;;5.60;;
3867;SDS011;1949;48.152;11.528;2023-02-08T01:11:49;15.47;;;5.20;;
3867;SDS011;1949;48.152;11.528;2023-02-08T01:14:15;25.33;;;6.10;;
3867;SDS011;1949;48.152;11.528;2023-02-08T01:16:42;12.23;;;5.57;;
3867;SDS011;1949;48.152;11.528;2023-02-08T01:19:07;19.90;;;6.63;;
3867;SDS011;1949;48.152;11.528;2023-02-08T01:21:36;14.30;;;5.50;;
3867;SDS011;1949;48.152;11.528;2023-02-08T01:24:04;12.60;;;5.60;;
3867;SDS011;1949;48.152;11.528;2023-02-08T01:26:31;14.20;;;5.87;;
3867;SDS011;1949;48.152;11.528;2023-02-08T01:28:57;15.20;;;6.70;;
3867;SDS011;1949;48.152;11.528;2023-02-08T01:31:24;16.17;;;5.77;;
3867;SDS011;1949;48.152;11.528;2023-02-08T01:34:01;17.33;;;6.13;;
3867;SDS011;1949;48.152;11.528;2023-02-08T01:36:29;14.97;;;6.00;;
3867;SDS011;1949;48.152;11.528;2023-02-08T01:38:56;14.43;;;5.80;;
3867;SDS011;1949;48.152;11.528;2023-02-08T01:41:28;12.60;;;6.43;;
3867;SDS011;1949;48.152;11.528;2023-02-08T01:46:43;14.97;;;6.10;;
3867;SDS011;1949;48.152;11.528;2023-02-08T01:49:12;20.47;;;6.43;;
3867;SDS011;1949;48.152;11.528;2023-02-08T01:51:52;17.53;;;7.13;;
3867;SDS011;1949;48.152;11.528;2023-02-08T01:54:22;18.43;;;6.40;;
3867;SDS011;1949;48.152;11.528;2023-02-08T01:56:51;18.13;;;8.93;;
3867;SDS011;1949;48.152;11.528;2023-02-08T02:01:51;13.40;;;5.07;;
3867;SDS011;1949;48.152;11.528;2023-02-08T02:04:20;16.10;;;5.97;;
3867;SDS011;1949;48.152;11.528;2023-02-08T02:06:48;18.63;;;6.47;;
3867;SDS011;1949;48.152;11.528;2023-02-08T02:11:54;13.07;;;5.90;;
3867;SDS011;1949;48.152;11.528;2023-02-08T02:14:23;17.40;;;7.43;;
3867;SDS011;1949;48.152;11.528;2023-02-08T02:16:51;11.70;;;5.40;;
3867;SDS011;1949;48.152;11.528;2023-02-08T02:19:22;11.53;;;6.03;;
3867;SDS011;1949;48.152;11.528;2023-02-08T02:24:50;29.90;;;6.83;;
3867;SDS011;1949;48.152;11.528;2023-02-08T02:39:26;23.40;;;7.87;;
3867;SDS011;1949;48.152;11.528;2023-02-08T02:42:00;18.20;;;6.87;;
3867;SDS011;1949;48.152;11.528;2023-02-08T02:45:09;17.07;;;8.10;;
3867;SDS011;1949;48.152;11.528;2023-02-08T02:50:45;17.77;;;7.40;;
3867;SDS011;1949;48.152;11.528;2023-02-08T02:55:56;15.30;;;6.70;;
3867;SDS011;1949;48.152;11.528;2023-02-08T02:58:25;16.97;;;6.80;;
3867;SDS011;1949;48.152;11.528;2023-02-08T03:00:53;19.43;;;7.20;;
3867;SDS011;1949;48.152;11.528;2023-02-08T03:03:22;21.40;;;7.00;;
3867;SDS011;1949;48.152;11.528;2023-02-08T03:05:50;15.40;;;6.20;;
3867;SDS011;1949;48.152;11.528;2023-02-08T03:11:27;16.30;;;5.40;;
3867;SDS011;1949;48.152;11.528;2023-02-08T03:17:01;20.50;;;7.10;;
3867;SDS011;1949;48.152;11.528;2023-02-08T03:19:43;15.27;;;6.67;;
3867;SDS011;1949;48.152;11.528;2023-02-08T03:22:25;16.20;;;6.73;;
3867;SDS011;1949;48.152;11.528;2023-02-08T03:25:32;17.30;;;6.40;;
3867;SDS011;1949;48.152;11.528;2023-02-08T03:28:27;15.33;;;6.27;;
3867;SDS011;1949;48.152;11.528;2023-02-08T03:31:05;16.20;;;6.70;;
3867;SDS011;1949;48.152;11.528;2023-02-08T03:34:01;18.80;;;6.13;;
3867;SDS011;1949;48.152;11.528;2023-02-08T03:36:28;17.40;;;6.90;;
3867;SDS011;1949;48.152;11.528;2023-02-08T03:39:00;17.00;;;6.07;;
3867;SDS011;1949;48.152;11.528;2023-02-08T03:41:33;13.40;;;6.73;;
3867;SDS011;1949;48.152;11.528;2023-02-08T03:46:34;14.67;;;6.23;;
3867;SDS011;1949;48.152;11.528;2023-02-08T03:49:23;19.03;;;6.90;;
3867;SDS011;1949;48.152;11.528;2023-02-08T03:51:54;13.70;;;5.80;;
3867;SDS011;1949;48.152;11.528;2023-02-08T03:54:25;16.33;;;7.20;;
3867;SDS011;1949;48.152;11.528;2023-02-08T03:59:41;30.97;;;12.73;;
3867;SDS011;1949;48.152;11.528;2023-02-08T04:02:10;23.43;;;10.37;;
3867;SDS011;1949;48.152;11.528;2023-02-08T04:04:41;28.33;;;10.33;;
3867;SDS011;1949;48.152;11.528;2023-02-08T04:07:10;24.13;;;7.90;;
3867;SDS011;1949;48.152;11.528;2023-02-08T04:09:37;18.63;;;7.73;;
3867;SDS011;1949;48.152;11.528;2023-02-08T04:12:02;15.47;;;6.77;;
3867;SDS011;1949;48.152;11.528;2023-02-08T04:14:28;12.60;;;7.20;;
3867;SDS011;1949;48.152;11.528;2023-02-08T04:16:55;16.37;;;6.63;;
3867;SDS011;1949;48.152;11.528;2023-02-08T04:19:20;20.53;;;7.40;;
3867;SDS011;1949;48.152;11.528;2023-02-08T04:21:46;16.60;;;6.77;;
3867;SDS011;1949;48.152;11.528;2023-02-08T04:24:12;28.10;;;6.80;;
3867;SDS011;1949;48.152;11.528;2023-02-08T04:26:38;15.60;;;7.10;;
3867;SDS011;1949;48.152;11.528;2023-02-08T04:29:04;14.07;;;6.90;;
3867;SDS011;1949;48.152;11.528;2023-02-08T04:31:30;25.83;;;8.00;;
3867;SDS011;1949;48.152;11.528;2023-02-08T04:33:57;14.40;;;6.50;;
3867;SDS011;1949;48.152;11.528;2023-02-08T04:36:23;20.53;;;7.20;;
3867;SDS011;1949;48.152;11.528;2023-02-08T04:38:49;15.93;;;7.40;;
3867;SDS011;1949;48.152;11.528;2023-02-08T04:41:14;19.17;;;7.57;;
3867;SDS011;1949;48.152;11.528;2023-02-08T04:43:40;15.87;;;6.50;;
3867;SDS011;1949;48.152;11.528;2023-02-08T04:46:06;23.83;;;7.30;;
3867;SDS011;1949;48.152;11.528;2023-02-08T04:48:32;19.67;;;6.63;;
3867;SDS011;1949;48.152;11.528;2023-02-08T04:50:58;16.03;;;6.10;;
3867;SDS011;1949;48.152;11.528;2023-02-08T04:53:25;12.50;;;6.60;;
3867;SDS011;1949;48.152;11.528;2023-02-08T04:55:51;24.57;;;7.53;;
3867;SDS011;1949;48.152;11.528;2023-02-08T04:58:17;23.03;;;9.27;;
3867;SDS011;1949;48.152;11.528;2023-02-08T05:00:43;13.77;;;7.03;;
3867;SDS011;1949;48.152;11.528;2023-02-08T05:03:11;18.90;;;7.80;;
3867;SDS011;1949;48.152;11.528;2023-02-08T05:05:37;26.37;;;8.40;;
3867;SDS011;1949;48.152;11.528;2023-02-08T05:08:03;18.77;;;7.20;;
3867;SDS011;1949;48.152;11.528;2023-02-08T05:10:29;15.40;;;7.10;;
3867;SDS011;1949;48.152;11.528;2023-02-08T05:12:59;18.37;;;6.90;;
3867;SDS011;1949;48.152;11.528;2023-02-08T05:15:24;19.80;;;7.10;;
3867;SDS011;1949;48.152;11.528;2023-02-08T05:17:52;14.60;;;5.80;;
3867;SDS011;1949;48.152;11.528;2023-02-08T05:20:22;22.70;;;8.33;;
3867;SDS011;1949;48.152;11.528;2023-02-08T05:22:50;19.50;;;7.83;;
3867;SDS011;1949;48.152;11.528;2023-02-08T05:25:15;28.40;;;8.07;;
3867;SDS011;1949;48.152;11.528;2023-02-08T05:27:42;28.77;;;8.80;;
3867;SDS011;1949;48.152;11.528;2023-02-08T05:30:07;24.10;;;8.63;;
3867;SDS011;1949;48.152;11.528;2023-02-08T05:32:36;18.40;;;8.80;;
3867;SDS011;1949;48.152;11.528;2023-02-08T05:35:01;21.40;;;7.73;;
3867;SDS011;1949;48.152;11.528;2023-02-08T05:37:34;25.93;;;9.17;;
3867;SDS011;1949;48.152;11.528;2023-02-08T05:40:04;26.90;;;8.63;;
3867;SDS011;1949;48.152;11.528;2023-02-08T05:42:30;25.90;;;10.17;;
3867;SDS011;1949;48.152;11.528;2023-02-08T05:44:56;21.20;;;8.70;;
3867;SDS011;1949;48.152;11.528;2023-02-08T05:49:52;33.03;;;11.60;;
3867;SDS011;1949;48.152;11.528;2023-02-08T05:52:20;29.10;;;9.63;;
3867;SDS011;1949;48.152;11.528;2023-02-08T05:54:48;26.13;;;10.27;;
3867;SDS011;1949;48.152;11.528;2023-02-08T05:57:13;24.20;;;9.90;;
3867;SDS011;1949;48.152;11.528;2023-02-08T05:59:40;24.10;;;9.37;;
3867;SDS011;1949;48.152;11.528;2023-02-08T06:02:06;23.80;;;8.50;;
3867;SDS011;1949;48.152;11.528;2023-02-08T06:04:32;24.77;;;9.50;;
3867;SDS011;1949;48.152;11.528;2023-02-08T06:06:58;23.47;;;8.60;;
3867;SDS011;1949;48.152;11.528;2023-02-08T06:09:24;20.63;;;8.63;;
3867;SDS011;1949;48.152;11.528;2023-02-08T06:12:01;17.50;;;8.33;;
3867;SDS011;1949;48.152;11.528;2023-02-08T06:14:27;26.67;;;9.93;;
3867;SDS011;1949;48.152;11.528;2023-02-08T06:16:53;24.27;;;9.50;;
3867;SDS011;1949;48.152;11.528;2023-02-08T06:19:20;26.20;;;10.00;;
3867;SDS011;1949;48.152;11.528;2023-02-08T06:21:46;18.57;;;9.50;;
3867;SDS011;1949;48.152;11.528;2023-02-08T06:24:12;32.13;;;11.87;;
3867;SDS011;1949;48.152;11.528;2023-02-08T06:26:37;27.63;;;9.07;;
3867;SDS011;1949;48.152;11.528;2023-02-08T06:29:05;26.47;;;10.97;;
3867;SDS011;1949;48.152;11.528;2023-02-08T06:31:43;25.27;;;10.67;;
3867;SDS011;1949;48.152;11.528;2023-02-08T06:34:08;29.10;;;11.20;;
3867;SDS011;1949;48.152;11.528;2023-02-08T06:39:04;29.10;;;12.30;;
3867;SDS011;1949;48.152;11.528;2023-02-08T06:41:32;29.30;;;10.10;;
3867;SDS011;1949;48.152;11.528;2023-02-08T06:43:58;27.03;;;10.00;;
3867;SDS011;1949;48.152;11.528;2023-02-08T06:46:26;25.90;;;9.50;;
3867;SDS011;1949;48.152;11.528;2023-02-08T06:49:01;39.70;;;13.30;;
3867;SDS011;1949;48.152;11.528;2023-02-08T06:51:27;25.23;;;9.43;;
3867;SDS011;1949;48.152;11.528;2023-02-08T06:53:53;36.80;;;11.67;;
3867;SDS011;1949;48.152;11.528;2023-02-08T06:56:20;23.50;;;11.27;;
3867;SDS011;1949;48.152;11.528;2023-02-08T06:58:46;29.07;;;10.47;;
3867;SDS011;1949;48.152;11.528;2023-02-08T07:01:12;27.60;;;11.03;;
3867;SDS011;1949;48.152;11.528;2023-02-08T07:03:39;28.03;;;10.60;;
3867;SDS011;1949;48.152;11.528;2023-02-08T07:06:10;30.43;;;10.50;;
3867;SDS011;1949;48.152;11.528;2023-02-08T07:08:39;40.87;;;13.50;;
3867;SDS011;1949;48.152;11.528;2023-02-08T07:11:06;53.03;;;14.60;;
3867;SDS011;1949;48.152;11.528;2023-02-08T07:13:45;27.20;;;10.63;;
3867;SDS011;1949;48.152;11.528;2023-02-08T07:16:14;37.13;;;11.53;;
3867;SDS011;1949;48.152;11.528;2023-02-08T07:18:41;36.00;;;13.87;;
3867;SDS011;1949;48.152;11.528;2023-02-08T07:26:09;28.30;;;13.00;;
3867;SDS011;1949;48.152;11.528;2023-02-08T07:28:37;39.87;;;14.20;;
3867;SDS011;1949;48.152;11.528;2023-02-08T07:31:04;33.93;;;12.03;;
3867;SDS011;1949;48.152;11.528;2023-02-08T07:33:34;32.97;;;13.30;;
3867;SDS011;1949;48.152;11.528;2023-02-08T07:36:00;33.17;;;13.20;;
3867;SDS011;1949;48.152;11.528;2023-02-08T07:38:32;39.50;;;14.77;;
3867;SDS011;1949;48.152;11.528;2023-02-08T07:40:59;37.30;;;12.60;;
3867;SDS011;1949;48.152;11.528;2023-02-08T07:43:27;36.20;;;12.47;;
3867;SDS011;1949;48.152;11.528;2023-02-08T07:45:52;39.83;;;12.17;;
3867;SDS011;1949;48.152;11.528;2023-02-08T07:48:19;51.23;;;13.60;;
3867;SDS011;1949;48.152;11.528;2023-02-08T07:50:45;50.20;;;14.30;;
3867;SDS011;1949;48.152;11.528;2023-02-08T07:53:13;27.87;;;9.70;;
3867;SDS011;1949;48.152;11.528;2023-02-08T07:55:43;35.00;;;12.83;;
3867;SDS011;1949;48.152;11.528;2023-02-08T07:58:10;23.43;;;10.00;;
3867;SDS011;1949;48.152;11.528;2023-02-08T08:00:40;27.57;;;10.33;;
3867;SDS011;1949;48.152;11.528;2023-02-08T08:03:06;33.67;;;10.77;;
3867;SDS011;1949;48.152;11.528;2023-02-08T08:05:32;34.03;;;12.97;;
3867;SDS011;1949;48.152;11.528;2023-02-08T08:07:58;27.50;;;12.10;;
3867;SDS011;1949;48.152;11.528;2023-02-08T08:10:24;30.53;;;11.80;;
3867;SDS011;1949;48.152;11.528;2023-02-08T08:12:49;31.87;;;9.90;;
3867;SDS011;1949;48.152;11.528;2023-02-08T08:15:18;44.87;;;11.87;;
3867;SDS011;1949;48.152;11.528;2023-02-08T08:17:45;30.90;;;9.93;;
3867;SDS011;1949;48.152;11.528;2023-02-08T08:20:12;27.40;;;10.67;;
3867;SDS011;1949;48.152;11.528;2023-02-08T08:22:39;22.77;;;8.73;;
3867;SDS011;1949;48.152;11.528;2023-02-08T08:25:06;29.43;;;10.70;;
3867;SDS011;1949;48.152;11.528;2023-02-08T08:27:32;26.30;;;10.33;;
3867;SDS011;1949;48.152;11.528;2023-02-08T08:30:02;26.47;;;9.93;;
3867;SDS011;1949;48.152;11.528;2023-02-08T08:35:04;27.13;;;10.63;;
3867;SDS011;1949;48.152;11.528;2023-02-08T08:37:33;20.40;;;8.70;;
3867;SDS011;1949;48.152;11.528;2023-02-08T08:40:00;21.47;;;8.87;;
3867;SDS011;1949;48.152;11.528;2023-02-08T08:42:27;20.60;;;9.17;;
3867;SDS011;1949;48.152;11.528;2023-02-08T08:44:53;22.27;;;9.90;;
3867;SDS011;1949;48.152;11.528;2023-02-08T08:47:20;26.40;;;8.83;;
3867;SDS011;1949;48.152;11.528;2023-02-08T08:49:46;19.77;;;9.17;;
3867;SDS011;1949;48.152;11.528;2023-02-08T08:52:13;25.30;;;9.33;;
3867;SDS011;1949;48.152;11.528;2023-02-08T08:54:40;22.43;;;9.17;;
3867;SDS011;1949;48.152;11.528;2023-02-08T08:57:09;22.77;;;8.67;;
3867;SDS011;1949;48.152;11.528;2023-02-08T08:59:34;28.00;;;10.30;;
3867;SDS011;1949;48.152;11.528;2023-02-08T09:02:00;22.13;;;9.20;;
3867;SDS011;1949;48.152;11.528;2023-02-08T09:04:26;27.10;;;10.67;;
3867;SDS011;1949;48.152;11.528;2023-02-08T09:06:53;26.20;;;10.67;;
3867;SDS011;1949;48.152;11.528;2023-02-08T09:09:19;26.20;;;9.40;;
3867;SDS011;1949;48.152;11.528;2023-02-08T09:11:48;26.37;;;9.73;;
3867;SDS011;1949;48.152;11.528;2023-02-08T09:14:16;15.53;;;7.67;;
3867;SDS011;1949;48.152;11.528;2023-02-08T09:19:23;24.70;;;9.50;;
3867;SDS011;1949;48.152;11.528;2023-02-08T09:21:50;28.90;;;10.33;;
3867;SDS011;1949;48.152;11.528;2023-02-08T09:24:16;27.03;;;10.70;;
3867;SDS011;1949;48.152;11.528;2023-02-08T09:26:42;23.73;;;9.80;;
3867;SDS011;1949;48.152;11.528;2023-02-08T09:29:10;32.83;;;11.90;;
3867;SDS011;1949;48.152;11.528;2023-02-08T09:31:36;25.30;;;9.57;;
3867;SDS011;1949;48.152;11.528;2023-02-08T09:34:02;30.17;;;10.93;;
3867;SDS011;1949;48.152;11.528;2023-02-08T09:36:31;33.97;;;11.60;;
3867;SDS011;1949;48.152;11.528;2023-02-08T09:39:01;32.50;;;11.73;;
3867;SDS011;1949;48.152;11.528;2023-02-08T09:41:55;34.17;;;12.40;;
3867;SDS011;1949;48.152;11.528;2023-02-08T09:50:04;27.53;;;11.67;;
3867;SDS011;1949;48.152;11.528;2023-02-08T09:53:10;26.37;;;11.30;;
3867;SDS011;1949;48.152;11.528;2023-02-08T09:58:46;24.57;;;10.00;;
3867;SDS011;1949;48.152;11.528;2023-02-08T10:01:26;23.93;;;10.60;;
3867;SDS011;1949;48.152;11.528;2023-02-08T10:06:59;23.77;;;8.33;;
3867;SDS011;1949;48.152;11.528;2023-02-08T10:09:26;27.60;;;9.67;;
3867;SDS011;1949;48.152;11.528;2023-02-08T10:20:52;32.00;;;11.70;;
3867;SDS011;1949;48.152;11.528;2023-02-08T10:23:37;25.83;;;9.37;;
3867;SDS011;1949;48.152;11.528;2023-02-08T10:26:36;21.83;;;9.33;;
3867;SDS011;1949;48.152;11.528;2023-02-08T10:32:25;19.40;;;8.40;;
3867;SDS011;1949;48.152;11.528;2023-02-08T10:35:14;19.20;;;8.53;;
3867;SDS011;1949;48.152;11.528;2023-02-08T10:40:44;28.63;;;9.90;;
3867;SDS011;1949;48.152;11.528;2023-02-08T10:43:20;37.40;;;12.50;;
3867;SDS011;1949;48.152;11.528;2023-02-08T10:45:55;25.83;;;8.53;;
3867;SDS011;1949;48.152;11.528;2023-02-08T10:51:19;21.23;;;7.47;;
3867;SDS011;1949;48.152;11.528;2023-02-08T10:53:45;29.70;;;10.43;;
3867;SDS011;1949;48.152;11.528;2023-02-08T10:59:21;30.17;;;10.73;;
3867;SDS011;1949;48.152;11.528;2023-02-08T11:01:54;24.83;;;8.90;;
3867;SDS011;1949;48.152;11.528;2023-02-08T11:04:21;28.63;;;10.07;;
3867;SDS011;1949;48.152;11.528;2023-02-08T11:06:48;23.87;;;9.70;;
3867;SDS011;1949;48.152;11.528;2023-02-08T11:11:52;15.03;;;6.93;;
3867;SDS011;1949;48.152;11.528;2023-02-08T11:14:21;23.47;;;8.77;;
3867;SDS011;1949;48.152;11.528;2023-02-08T11:17:00;23.90;;;10.93;;
3867;SDS011;1949;48.152;11.528;2023-02-08T11:22:12;23.13;;;9.33;;
3867;SDS011;1949;48.152;11.528;2023-02-08T11:24:41;32.77;;;11.43;;
3867;SDS011;1949;48.152;11.528;2023-02-08T11:32:45;33.23;;;12.43;;
3867;SDS011;1949;48.152;11.528;2023-02-08T11:37:47;29.33;;;10.73;;
3867;SDS011;1949;48.152;11.528;2023-02-08T11:40:28;35.53;;;10.33;;
3867;SDS011;1949;48.152;11.528;2023-02-08T11:42:59;30.60;;;10.60;;
3867;SDS011;1949;48.152;11.528;2023-02-08T11:45:33;25.80;;;10.57;;
3867;SDS011;1949;48.152;11.528;2023-02-08T11:48:02;21.37;;;8.60;;
3867;SDS011;1949;48.152;11.528;2023-02-08T11:50:36;31.70;;;11.57;;
3867;SDS011;1949;48.152;11.528;2023-02-08T11:53:04;28.10;;;10.40;;
3867;SDS011;1949;48.152;11.528;2023-02-08T11:55:32;34.13;;;13.53;;
3867;SDS011;1949;48.152;11.528;2023-02-08T11:58:45;41.97;;;12.83;;
3867;SDS011;1949;48.152;11.528;2023-02-08T12:03:35;27.30;;;12.17;;
3867;SDS011;1949;48.152;11.528;2023-02-08T12:06:07;29.57;;;12.00;;
3867;SDS011;1949;48.152;11.528;2023-02-08T12:11:27;36.87;;;12.13;;
3867;SDS011;1949;48.152;11.528;2023-02-08T12:17:16;25.40;;;9.90;;
3867;SDS011;1949;48.152;11.528;2023-02-08T12:25:33;30.40;;;11.50;;
3867;SDS011;1949;48.152;11.528;2023-02-08T12:33:32;24.77;;;11.13;;
3867;SDS011;1949;48.152;11.528;2023-02-08T12:36:10;34.73;;;11.97;;
3867;SDS011;1949;48.152;11.528;2023-02-08T12:38:50;24.67;;;11.37;;
3867;SDS011;1949;48.152;11.528;2023-02-08T12:44:36;21.67;;;10.30;;
3867;SDS011;1949;48.152;11.528;2023-02-08T12:47:08;25.80;;;10.00;;
3867;SDS011;1949;48.152;11.528;2023-02-08T12:50:02;23.03;;;10.20;;
3867;SDS011;1949;48.152;11.528;2023-02-08T12:52:59;22.20;;;10.07;;
3867;SDS011;1949;48.152;11.528;2023-02-08T12:55:30;24.30;;;11.47;;
3867;SDS011;1949;48.152;11.528;2023-02-08T12:58:21;44.03;;;12.03;;
3867;SDS011;1949;48.152;11.528;2023-02-08T13:01:09;23.40;;;10.63;;
3867;SDS011;1949;48.152;11.528;2023-02-08T13:06:48;31.73;;;12.17;;
3867;SDS011;1949;48.152;11.528;2023-02-08T13:14:55;27.57;;;12.37;;
3867;SDS011;1949;48.152;11.528;2023-02-08T13:17:28;27.60;;;12.13;;
3867;SDS011;1949;48.152;11.528;2023-02-08T13:22:49;25.33;;;11.03;;
3867;SDS011;1949;48.152;11.528;2023-02-08T13:25:28;25.03;;;10.90;;
3867;SDS011;1949;48.152;11.528;2023-02-08T13:28:06;23.77;;;10.97;;
3867;SDS011;1949;48.152;11.528;2023-02-08T13:30:36;22.63;;;10.63;;
3867;SDS011;1949;48.152;11.528;2023-02-08T13:33:17;24.20;;;10.73;;
3867;SDS011;1949;48.152;11.528;2023-02-08T13:35:49;22.30;;;9.80;;
3867;SDS011;1949;48.152;11.528;2023-02-08T13:38:31;22.70;;;11.00;;
3867;SDS011;1949;48.152;11.528;2023-02-08T13:43:37;26.43;;;11.53;;
3867;SDS011;1949;48.152;11.528;2023-02-08T13:46:08;22.47;;;10.60;;
3867;SDS011;1949;48.152;11.528;2023-02-08T13:48:42;23.80;;;11.13;;
3867;SDS011;1949;48.152;11.528;2023-02-08T13:59:03;28.97;;;11.30;;
3867;SDS011;1949;48.152;11.528;2023-02-08T14:04:53;29.07;;;12.00;;
3867;SDS011;1949;48.152;11.528;2023-02-08T14:07:42;24.87;;;12.47;;
3867;SDS011;1949;48.152;11.528;2023-02-08T14:13:04;31.87;;;13.70;;
3867;SDS011;1949;48.152;11.528;2023-02-08T14:15:44;30.83;;;13.87;;
3867;SDS011;1949;48.152;11.528;2023-02-08T14:18:24;35.63;;;15.07;;
3867;SDS011;1949;48.152;11.528;2023-02-08T14:21:01;33.03;;;13.40;;
3867;SDS011;1949;48.152;11.528;2023-02-08T14:23:34;38.07;;;13.97;;
3867;SDS011;1949;48.152;11.528;2023-02-08T14:26:08;34.50;;;14.47;;
3867;SDS011;1949;48.152;11.528;2023-02-08T14:28:46;27.97;;;12.93;;
3867;SDS011;1949;48.152;11.528;2023-02-08T14:31:45;32.23;;;13.83;;
3867;SDS011;1949;48.152;11.528;2023-02-08T14:34:19;25.27;;;12.10;;
3867;SDS011;1949;48.152;11.528;2023-02-08T14:37:05;37.63;;;14.40;;
3867;SDS011;1949;48.152;11.528;2023-02-08T14:45:38;31.77;;;12.77;;
3867;SDS011;1949;48.152;11.528;2023-02-08T14:50:40;29.13;;;11.43;;
3867;SDS011;1949;48.152;11.528;2023-02-08T14:53:16;24.10;;;10.53;;
3867;SDS011;1949;48.152;11.528;2023-02-08T14:55:51;25.40;;;11.37;;
3867;SDS011;1949;48.152;11.528;2023-02-08T15:01:17;36.17;;;13.67;;
3867;SDS011;1949;48.152;11.528;2023-02-08T15:03:50;29.43;;;10.13;;
3867;SDS011;1949;48.152;11.528;2023-02-08T15:09:45;22.87;;;10.53;;
3867;SDS011;1949;48.152;11.528;2023-02-08T15:12:00;32.80;;;13.50;;
3867;SDS011;1949;48.152;11.528;2023-02-08T15:14:29;33.80;;;13.50;;
3867;SDS011;1949;48.152;11.528;2023-02-08T15:17:00;25.87;;;10.27;;
3867;SDS011;1949;48.152;11.528;2023-02-08T15:19:28;23.73;;;10.50;;
3867;SDS011;1949;48.152;11.528;2023-02-08T15:22:28;18.03;;;8.97;;
3867;SDS011;1949;48.152;11.528;2023-02-08T15:24:58;32.83;;;11.43;;
3867;SDS011;1949;48.152;11.528;2023-02-08T15:27:33;23.67;;;9.97;;
3867;SDS011;1949;48.152;11.528;2023-02-08T15:29:59;24.17;;;10.57;;
3867;SDS011;1949;48.152;11.528;2023-02-08T15:32:26;31.27;;;12.70;;
3867;SDS011;1949;48.152;11.528;2023-02-08T15:34:54;28.97;;;9.10;;
3867;SDS011;1949;48.152;11.528;2023-02-08T15:37:23;22.50;;;9.30;;
3867;SDS011;1949;48.152;11.528;2023-02-08T15:39:52;23.83;;;8.53;;
3867;SDS011;1949;48.152;11.528;2023-02-08T15:42:22;21.53;;;7.20;;
3867;SDS011;1949;48.152;11.528;2023-02-08T15:44:52;40.10;;;7.70;;
3867;SDS011;1949;48.152;11.528;2023-02-08T15:47:24;30.30;;;11.80;;
3867;SDS011;1949;48.152;11.528;2023-02-08T15:49:58;34.70;;;12.17;;
3867;SDS011;1949;48.152;11.528;2023-02-08T15:52:30;23.13;;;9.00;;
3867;SDS011;1949;48.152;11.528;2023-02-08T15:54:59;24.30;;;9.00;;
3867;SDS011;1949;48.152;11.528;2023-02-08T16:00:10;20.20;;;9.53;;
3867;SDS011;1949;48.152;11.528;2023-02-08T16:02:41;24.57;;;10.07;;
3867;SDS011;1949;48.152;11.528;2023-02-08T16:05:27;18.10;;;8.73;;
3867;SDS011;1949;48.152;11.528;2023-02-08T16:07:55;28.80;;;10.23;;
3867;SDS011;1949;48.152;11.528;2023-02-08T16:10:32;22.77;;;9.93;;
3867;SDS011;1949;48.152;11.528;2023-02-08T16:13:13;24.87;;;10.30;;
3867;SDS011;1949;48.152;11.528;2023-02-08T16:15:48;30.30;;;10.80;;
3867;SDS011;1949;48.152;11.528;2023-02-08T16:21:28;30.50;;;11.30;;
3867;SDS011;1949;48.152;11.528;2023-02-08T16:24:04;22.43;;;9.90;;
3867;SDS011;1949;48.152;11.528;2023-02-08T16:29:37;20.83;;;9.00;;
3867;SDS011;1949;48.152;11.528;2023-02-08T16:32:46;20.60;;;9.80;;
3867;SDS011;1949;48.152;11.528;2023-02-08T16:34:54;22.53;;;9.40;;
3867;SDS011;1949;48.152;11.528;2023-02-08T16:39:59;20.20;;;9.47;;
3867;SDS011;1949;48.152;11.528;2023-02-08T16:42:31;23.17;;;9.83;;
3867;SDS011;1949;48.152;11.528;2023-02-08T16:47:45;24.43;;;9.70;;
3867;SDS011;1949;48.152;11.528;2023-02-08T16:50:26;22.93;;;9.77;;
3867;SDS011;1949;48.152;11.528;2023-02-08T16:52:53;20.13;;;8.67;;
3867;SDS011;1949;48.152;11.528;2023-02-08T16:55:26;19.10;;;8.10;;
3867;SDS011;1949;48.152;11.528;2023-02-08T16:57:56;23.57;;;11.00;;
3867;SDS011;1949;48.152;11.528;2023-02-08T17:00:24;26.13;;;10.47;;
3867;SDS011;1949;48.152;11.528;2023-02-08T17:02:55;25.37;;;10.00;;
3867;SDS011;1949;48.152;11.528;2023-02-08T17:05:23;24.07;;;10.40;;
3867;SDS011;1949;48.152;11.528;2023-02-08T17:07:53;29.80;;;10.93;;
3867;SDS011;1949;48.152;11.528;2023-02-08T17:12:46;24.30;;;10.20;;
3867;SDS011;1949;48.152;11.528;2023-02-08T17:15:12;22.53;;;10.07;;
3867;SDS011;1949;48.152;11.528;2023-02-08T17:17:40;33.00;;;11.33;;
3867;SDS011;1949;48.152;11.528;2023-02-08T17:20:17;20.27;;;9.13;;
3867;SDS011;1949;48.152;11.528;2023-02-08T17:22:53;25.00;;;10.73;;
3867;SDS011;1949;48.152;11.528;2023-02-08T17:25:27;26.13;;;11.03;;
3867;SDS011;1949;48.152;11.528;2023-02-08T17:27:58;32.90;;;10.60;;
3867;SDS011;1949;48.152;11.528;2023-02-08T17:30:31;27.53;;;10.27;;
3867;SDS011;1949;48.152;11.528;2023-02-08T17:33:03;62.67;;;15.63;;
3867;SDS011;1949;48.152;11.528;2023-02-08T17:38:02;27.40;;;10.00;;
3867;SDS011;1949;48.152;11.528;2023-02-08T17:40:30;22.40;;;9.40;;
3867;SDS011;1949;48.152;11.528;2023-02-08T17:42:58;21.00;;;8.47;;
3867;SDS011;1949;48.152;11.528;2023-02-08T17:45:29;25.43;;;8.07;;
3867;SDS011;1949;48.152;11.528;2023-02-08T17:47:58;33.07;;;11.30;;
3867;SDS011;1949;48.152;11.528;2023-02-08T17:50:24;39.80;;;10.80;;
3867;SDS011;1949;48.152;11.528;2023-02-08T17:52:50;33.50;;;9.70;;
3867;SDS011;1949;48.152;11.528;2023-02-08T17:55:18;30.30;;;9.13;;
3867;SDS011;1949;48.152;11.528;2023-02-08T17:57:46;33.63;;;10.57;;
3867;SDS011;1949;48.152;11.528;2023-02-08T18:00:16;23.07;;;9.00;;
3867;SDS011;1949;48.152;11.528;2023-02-08T18:05:24;30.73;;;10.73;;
3867;SDS011;1949;48.152;11.528;2023-02-08T18:07:52;32.93;;;10.37;;
3867;SDS011;1949;48.152;11.528;2023-02-08T18:12:49;40.40;;;12.20;;
3867;SDS011;1949;48.152;11.528;2023-02-08T18:15:16;25.23;;;9.00;;